Etusivu
METAR-TAF:

METAR-TAF

Lentoasemat :

Gatesville Municipal Airport

Gatesville, Texas, Yhdysvallat

Leveyspiiri: 31-25-16N, Pituuspiiri: 097-47-49W, korkeus merenpinnasta: 276 m

Tämänhetkinen sää

Tämä raportti tehtiin 16 minuuttia sitten, kello 10.55 UTC
Tuuli 6 kn lännestä/luoteesta
Lämpötila 13°C
Kosteus 54%
Ilmanpaine 1020 hPa
Näkyvyys: 16.1 km
selkeää

METAR: KGOP 061055Z AUTO 30006KT 10SM CLR 13/04 A3011 RMK AO2

Aika: 05:11 (11:11 UTC)


TAF: puuttuu

Säähavainnot ja -ennusteet yli 4000 lentoasemalta (METAR- ja TAF-raportit).

Käytössä olevat sääasemat on merkitty karttaan keltaisilla ja punaisilla pisteillä.

Aseta hiiri pisteen päälle nähdäksesi sääaseman nimen.

Klikkaa sitten nähdäksesi säähavainnot ja -ennusteet.

Kartan vaihtaminen: klikkaa mustalla rastilla varustettuja vihreitä pisteitä, niin voit zoomata sisään; viivalla varustettua vihreää pistettä, niin voit zoomata ulos tai vihreitä nuolia, niin pääset viereisille kartoille.


METAR-TAF: